Time;durP1;ratioP1;P1;durP2;ratioP2;P2;SDS_P1;SDS_P2;PMS_P1;PMS_P2;Temp;Humidity;BMP_temperature;BMP_pressure;BME280_temperature;BME280_humidity;BME280_pressure;Samples;Min_cycle;Max_cycle;Signal;HPM_P1;HPM_P2
2023/06/26 00:01:32;;;;;;;4.40;3.00;;;;;;;18.74;100.00;101424.41;5073099;28;20060;-68
2023/06/26 00:03:58;;;;;;;5.28;3.45;;;;;;;18.75;100.00;101409.69;5072643;28;20044;-68
2023/06/26 00:06:25;;;;;;;4.45;3.67;;;;;;;18.72;100.00;101415.63;5070310;28;20025;-68
2023/06/26 00:08:52;;;;;;;6.55;3.53;;;;;;;18.61;100.00;101396.50;5058652;28;20043;-68
2023/06/26 00:11:18;;;;;;;3.75;3.40;;;;;;;18.67;100.00;101418.19;5056757;28;20495;-67
2023/06/26 00:13:44;;;;;;;4.72;3.67;;;;;;;18.66;100.00;101419.25;5057162;28;20056;-68
2023/06/26 00:16:09;;;;;;;4.68;3.58;;;;;;;18.67;100.00;101418.19;5058078;28;20025;-67
2023/06/26 00:18:35;;;;;;;3.97;3.58;;;;;;;18.66;100.00;101407.53;5040826;28;20504;-68
2023/06/26 00:21:00;;;;;;;4.25;3.70;;;;;;;18.67;100.00;101415.47;5057233;28;20033;-68
2023/06/26 00:23:27;;;;;;;4.70;3.75;;;;;;;18.66;100.00;101413.81;5040432;28;20033;-68
2023/06/26 00:25:54;;;;;;;4.55;4.13;;;;;;;18.65;100.00;101406.72;5057357;28;20017;-68
2023/06/26 00:28:19;;;;;;;3.50;3.20;;;;;;;18.69;100.00;101404.34;5057464;28;20127;-68
2023/06/26 00:30:45;;;;;;;6.00;3.95;;;;;;;18.70;100.00;101405.97;5058479;28;20063;-67
2023/06/26 00:33:11;;;;;;;3.97;3.50;;;;;;;18.52;100.00;101375.06;5057813;28;20494;-67
2023/06/26 00:35:36;;;;;;;4.75;3.90;;;;;;;18.58;100.00;101397.84;5057127;28;20087;-68
2023/06/26 00:38:02;;;;;;;5.03;3.90;;;;;;;18.42;100.00;101376.75;5057443;28;20040;-67
2023/06/26 00:40:27;;;;;;;4.03;3.50;;;;;;;18.35;100.00;101373.31;5057001;28;20040;-67
2023/06/26 00:42:53;;;;;;;3.58;3.28;;;;;;;18.43;100.00;101383.84;5057671;28;20032;-68
2023/06/26 00:45:18;;;;;;;5.45;3.47;;;;;;;18.40;100.00;101385.13;5067910;28;20017;-68
2023/06/26 00:47:44;;;;;;;5.25;3.33;;;;;;;18.36;100.00;101391.31;5069848;28;20048;-67
2023/06/26 00:50:10;;;;;;;4.15;3.70;;;;;;;18.33;100.00;101389.88;5072667;28;20042;-68
2023/06/26 00:52:36;;;;;;;4.20;3.80;;;;;;;18.25;100.00;101377.44;5071473;28;20032;-67
2023/06/26 00:55:01;;;;;;;4.07;3.67;;;;;;;18.37;100.00;101382.88;5049032;28;20037;-68
2023/06/26 00:57:27;;;;;;;4.60;3.50;;;;;;;18.35;100.00;101392.38;5059871;28;20373;-67
2023/06/26 00:59:52;;;;;;;4.70;3.40;;;;;;;18.31;100.00;101392.84;5060646;28;20033;-68
2023/06/26 01:02:19;;;;;;;4.70;3.83;;;;;;;18.18;100.00;101371.28;5060054;28;20032;-68
2023/06/26 01:04:47;;;;;;;4.57;3.85;;;;;;;18.26;100.00;101390.00;5058251;28;20028;-67
2023/06/26 01:07:14;;;;;;;4.20;3.80;;;;;;;18.16;100.00;101372.59;5056955;28;20048;-67
2023/06/26 01:09:40;;;;;;;3.90;3.58;;;;;;;18.25;100.00;101384.78;5038313;28;20033;-67
2023/06/26 01:12:05;;;;;;;4.55;4.15;;;;;;;18.29;100.00;101381.34;5055167;28;20033;-68
2023/06/26 01:14:32;;;;;;;5.68;4.55;;;;;;;18.36;100.00;101385.88;5057955;28;20033;-71
2023/06/26 01:17:00;;;;;;;5.10;4.00;;;;;;;18.33;100.00;101376.25;5040187;28;20044;-67
2023/06/26 01:19:28;;;;;;;5.00;3.95;;;;;;;18.33;100.00;101378.16;5057854;28;20552;-68
2023/06/26 01:22:28;;;;;;;5.00;3.88;;;;;;;18.30;100.00;101374.81;5055107;28;20249;-67
2023/06/26 01:25:23;;;;;;;4.30;3.90;;;;;;;18.26;100.00;101373.66;5049127;28;20029;-68
2023/06/26 01:27:52;;;;;;;4.57;3.85;;;;;;;18.20;100.00;101371.88;5056869;28;20024;-67
2023/06/26 01:30:19;;;;;;;4.43;3.92;;;;;;;18.14;100.00;101369.25;5055874;28;20092;-68
2023/06/26 01:32:46;;;;;;;4.45;4.00;;;;;;;18.10;100.00;101366.19;5056455;28;20025;-68
2023/06/26 01:35:13;;;;;;;3.83;3.42;;;;;;;18.03;100.00;101346.41;5054936;28;20028;-67
2023/06/26 01:37:38;;;;;;;5.40;4.05;;;;;;;18.05;100.00;101345.09;5038498;28;20511;-68
2023/06/26 01:40:05;;;;;;;4.28;3.88;;;;;;;17.89;100.00;101315.03;5055124;28;20082;-67
2023/06/26 01:42:32;;;;;;;4.25;3.85;;;;;;;18.05;100.00;101342.38;5054857;28;20377;-68
2023/06/26 01:45:03;;;;;;;4.60;3.60;;;;;;;18.02;100.00;101342.03;5055268;28;20025;-67
2023/06/26 01:47:33;;;;;;;4.00;3.53;;;;;;;17.93;100.00;101346.16;5054967;28;20122;-67
2023/06/26 01:50:18;;;;;;;4.68;4.28;;;;;;;17.88;100.00;101335.97;5056606;28;20025;-68
2023/06/26 01:52:53;;;;;;;5.68;3.80;;;;;;;17.83;100.00;101336.66;5056901;28;20029;-68
2023/06/26 01:55:33;;;;;;;5.30;3.40;;;;;;;17.74;100.00;101334.47;5056340;28;20075;-67
2023/06/26 01:57:59;;;;;;;3.50;3.20;;;;;;;17.59;100.00;101316.72;5053141;28;20029;-67
2023/06/26 02:00:26;;;;;;;3.83;3.53;;;;;;;17.65;100.00;101328.56;5056298;28;20143;-67
2023/06/26 02:02:52;;;;;;;3.70;3.40;;;;;;;17.53;100.00;101314.91;5065778;28;20093;-67
2023/06/26 02:05:18;;;;;;;4.57;3.42;;;;;;;17.65;100.00;101330.44;5038858;28;20137;-67
2023/06/26 02:07:44;;;;;;;4.20;3.80;;;;;;;17.66;100.00;101330.22;5056237;28;20061;-67
2023/06/26 02:10:11;;;;;;;4.57;3.88;;;;;;;17.66;100.00;101332.94;5038818;28;20028;-67
2023/06/26 02:12:37;;;;;;;5.68;3.58;;;;;;;17.66;100.00;101330.22;5054835;28;20063;-67
2023/06/26 02:15:04;;;;;;;4.70;4.20;;;;;;;17.64;100.00;101324.16;5055768;28;20029;-67
2023/06/26 02:17:30;;;;;;;4.45;3.67;;;;;;;17.67;100.00;101323.69;5055542;28;20027;-67
2023/06/26 02:19:55;;;;;;;4.20;3.80;;;;;;;17.71;100.00;101321.34;5056337;28;20551;-68
2023/06/26 02:22:21;;;;;;;5.60;4.10;;;;;;;17.77;100.00;101313.09;5037266;28;20035;-68
2023/06/26 02:24:46;;;;;;;6.30;4.20;;;;;;;17.72;100.00;101298.53;5054554;28;20049;-67
2023/06/26 02:27:12;;;;;;;4.43;3.65;;;;;;;17.77;100.00;101315.00;5021499;28;20028;-68
2023/06/26 02:29:39;;;;;;;5.38;3.67;;;;;;;17.71;100.00;101310.44;5056037;28;20028;-68
2023/06/26 02:32:04;;;;;;;4.38;3.88;;;;;;;17.69;100.00;101305.25;5056505;28;20475;-68
2023/06/26 02:34:30;;;;;;;3.53;3.22;;;;;;;17.66;100.00;101294.84;5056052;28;20438;-67
2023/06/26 02:36:56;;;;;;;3.35;3.00;;;;;;;17.84;100.00;101308.38;5059418;28;20025;-68
2023/06/26 02:39:22;;;;;;;4.15;3.40;;;;;;;17.95;100.00;101300.47;5059807;28;20067;-67
2023/06/26 02:41:47;;;;;;;4.60;3.90;;;;;;;18.20;99.36;101265.63;5059660;28;20040;-67
2023/06/26 02:44:14;;;;;;;5.20;4.28;;;;;;;18.83;97.80;101306.78;5058326;28;20017;-67
2023/06/26 02:46:40;;;;;;;5.85;4.72;;;;;;;19.21;96.14;101298.81;5057905;28;20049;-67
2023/06/26 02:49:06;;;;;;;4.50;4.10;;;;;;;19.48;95.24;101295.47;5041412;28;20037;-67
2023/06/26 02:51:34;;;;;;;4.55;4.13;;;;;;;19.67;94.18;101285.19;5058357;28;20544;-68
2023/06/26 02:54:00;;;;;;;5.00;3.97;;;;;;;19.86;93.18;101288.47;5057982;28;20044;-67
2023/06/26 02:56:29;;;;;;;5.10;3.80;;;;;;;20.04;92.15;101284.66;5059533;28;20037;-67
2023/06/26 02:58:57;;;;;;;4.60;3.60;;;;;;;20.44;91.03;101292.59;5058453;28;20027;-67
2023/06/26 03:01:23;;;;;;;3.90;3.60;;;;;;;20.79;88.90;101286.75;5057825;28;20021;-67
2023/06/26 03:03:49;;;;;;;4.07;3.38;;;;;;;21.05;87.64;101282.41;5055464;28;20032;-68
2023/06/26 03:06:15;;;;;;;3.60;3.30;;;;;;;21.35;86.08;101292.03;5041576;28;20025;-68
2023/06/26 03:08:42;;;;;;;3.92;3.47;;;;;;;21.62;84.31;101278.31;5060220;28;20033;-67
2023/06/26 03:11:08;;;;;;;3.80;3.13;;;;;;;21.86;82.63;101284.28;5066186;28;20091;-67
2023/06/26 03:13:36;;;;;;;3.47;3.05;;;;;;;22.07;81.32;101278.94;5064964;28;20056;-68
2023/06/26 03:16:02;;;;;;;4.28;3.70;;;;;;;22.39;79.82;101276.97;5059300;28;20499;-68
2023/06/26 03:18:28;;;;;;;3.45;3.15;;;;;;;22.73;77.73;101276.53;5058473;28;20067;-68
2023/06/26 03:20:55;;;;;;;4.05;3.70;;;;;;;22.92;76.70;101274.16;5057722;28;20029;-68
2023/06/26 03:23:21;;;;;;;4.50;4.10;;;;;;;22.95;75.69;101263.47;5059003;28;20091;-68
2023/06/26 03:25:47;;;;;;;4.10;3.70;;;;;;;23.08;75.40;101256.66;5057414;28;20048;-68
2023/06/26 03:28:13;;;;;;;4.15;3.42;;;;;;;23.52;73.71;101256.13;5057061;28;20032;-68
2023/06/26 03:30:39;;;;;;;4.53;3.78;;;;;;;23.75;73.00;101254.78;5041564;28;20515;-68
2023/06/26 03:33:04;;;;;;;4.80;4.30;;;;;;;23.84;72.91;101255.88;5059233;28;20456;-68
2023/06/26 03:35:30;;;;;;;4.78;4.38;;;;;;;24.08;72.42;101258.03;5058332;28;20033;-68
2023/06/26 03:37:55;;;;;;;4.53;4.13;;;;;;;24.65;70.71;101253.16;5057607;28;20035;-68
2023/06/26 03:40:21;;;;;;;5.70;4.28;;;;;;;25.16;69.25;101261.97;5056337;28;20037;-68
2023/06/26 03:42:46;;;;;;;4.70;4.20;;;;;;;25.44;68.12;101267.84;5056393;28;20037;-68
2023/06/26 03:45:12;;;;;;;5.05;4.55;;;;;;;25.68;67.65;101248.63;5054733;28;20040;-68
2023/06/26 03:47:37;;;;;;;5.93;4.05;;;;;;;26.04;66.61;101251.88;5057470;28;20064;-68
2023/06/26 03:50:03;;;;;;;4.65;4.07;;;;;;;26.32;65.47;101252.09;5056208;28;20029;-68
2023/06/26 03:52:30;;;;;;;4.05;3.65;;;;;;;26.68;64.57;101250.56;5057950;28;20112;-69
2023/06/26 03:54:59;;;;;;;4.63;3.80;;;;;;;26.65;63.28;101206.16;5057525;28;20029;-70
2023/06/26 03:57:24;;;;;;;4.28;3.35;;;;;;;27.17;62.23;101240.22;5042824;28;20553;-68
2023/06/26 03:59:51;;;;;;;4.10;3.70;;;;;;;27.49;61.00;101244.97;5041075;28;20097;-69
2023/06/26 04:02:17;;;;;;;4.00;3.58;;;;;;;27.66;60.33;101246.34;5059934;28;20044;-69
2023/06/26 04:04:42;;;;;;;3.97;3.55;;;;;;;27.34;60.14;101245.22;5041009;28;20033;-69
2023/06/26 04:07:07;;;;;;;4.03;3.60;;;;;;;27.16;60.38;101238.59;5055207;28;20087;-68
2023/06/26 04:09:33;;;;;;;3.65;3.35;;;;;;;27.06;59.90;101231.25;5060530;28;20025;-69
2023/06/26 04:11:59;;;;;;;3.60;3.30;;;;;;;26.72;60.70;101234.22;5066112;28;20024;-68
2023/06/26 04:14:24;;;;;;;4.20;3.47;;;;;;;27.01;59.85;101211.16;5064123;28;20067;-69
2023/06/26 04:16:50;;;;;;;4.82;3.65;;;;;;;27.63;57.95;101223.69;5057164;28;20064;-69
2023/06/26 04:19:15;;;;;;;4.43;3.10;;;;;;;28.19;56.65;101221.03;5057150;28;20037;-68
2023/06/26 04:21:41;;;;;;;5.78;3.03;;;;;;;28.62;55.57;101215.16;5039802;28;20053;-68
2023/06/26 04:24:06;;;;;;;4.10;3.40;;;;;;;29.04;54.66;101219.47;5058363;28;20016;-69
2023/06/26 04:26:32;;;;;;;3.40;3.08;;;;;;;29.18;54.06;101219.41;5066509;28;20040;-68
2023/06/26 04:28:57;;;;;;;3.88;3.40;;;;;;;29.17;53.77;101217.75;5068967;28;20029;-68
2023/06/26 04:31:23;;;;;;;4.32;3.33;;;;;;;29.41;53.53;101214.69;5054496;28;20011;-68
2023/06/26 04:33:50;;;;;;;4.13;3.40;;;;;;;29.45;53.23;101212.91;5070265;28;20047;-69
2023/06/26 04:36:19;;;;;;;6.07;3.38;;;;;;;29.37;53.64;101206.19;5070295;28;20033;-69
2023/06/26 04:38:44;;;;;;;4.05;3.60;;;;;;;29.15;54.33;101206.19;5071628;28;20107;-69
2023/06/26 04:41:09;;;;;;;5.63;3.70;;;;;;;29.21;54.06;101193.84;5068778;28;20044;-69
2023/06/26 04:43:35;;;;;;;4.78;3.47;;;;;;;28.78;54.83;101200.66;5071019;28;20078;-68
2023/06/26 04:46:02;;;;;;;6.03;3.47;;;;;;;28.56;55.70;101195.88;5067337;28;20111;-68
2023/06/26 04:48:28;;;;;;;4.40;3.40;;;;;;;28.15;56.82;101184.84;5061971;28;20049;-69
2023/06/26 04:50:55;;;;;;;3.95;3.30;;;;;;;28.38;56.51;101205.13;5059298;28;20029;-68
2023/06/26 04:53:22;;;;;;;9.15;3.45;;;;;;;28.07;57.21;101193.84;5059485;28;20037;-69
2023/06/26 04:55:51;;;;;;;5.68;3.20;;;;;;;28.21;56.91;101178.09;5056677;28;20024;-69
2023/06/26 04:58:17;;;;;;;6.00;3.13;;;;;;;28.46;56.54;101185.03;5055839;28;20029;-69
2023/06/26 05:00:43;;;;;;;9.73;3.42;;;;;;;28.45;57.04;101183.41;5057041;28;20079;-68
2023/06/26 05:03:10;;;;;;;8.70;3.33;;;;;;;28.45;57.04;101161.25;5054021;28;20449;-69
2023/06/26 05:05:36;;;;;;;10.05;3.38;;;;;;;28.34;57.14;101182.78;5053927;28;20023;-68
2023/06/26 05:08:16;;;;;;;9.57;3.10;;;;;;;27.97;57.53;101156.16;5056068;28;20408;-69
2023/06/26 05:10:42;;;;;;;16.00;3.53;;;;;;;27.79;58.97;101171.72;5053528;28;20102;-68
2023/06/26 05:13:07;;;;;;;10.70;3.60;;;;;;;27.44;59.99;101162.13;5038148;28;20028;-68
2023/06/26 05:15:33;;;;;;;6.05;3.28;;;;;;;27.52;59.97;101158.66;5054280;28;20021;-68
2023/06/26 05:17:58;;;;;;;10.75;3.17;;;;;;;27.57;60.19;101172.38;5036394;28;20021;-68
2023/06/26 05:20:24;;;;;;;12.63;3.55;;;;;;;27.25;61.16;101162.19;5053630;28;20037;-69
2023/06/26 05:22:49;;;;;;;12.32;3.17;;;;;;;27.39;61.17;101162.22;5060513;28;20369;-68
2023/06/26 05:25:16;;;;;;;10.15;3.08;;;;;;;27.29;61.20;101167.94;5037524;28;20028;-68
2023/06/26 05:27:42;;;;;;;13.20;3.22;;;;;;;27.54;60.80;101164.69;5053926;28;20098;-68
2023/06/26 05:30:08;;;;;;;13.07;3.25;;;;;;;27.78;60.44;101155.44;5053895;28;20025;-68
2023/06/26 05:32:35;;;;;;;10.00;2.72;;;;;;;28.19;59.76;101154.63;5037431;28;20025;-69
2023/06/26 05:35:05;;;;;;;8.15;2.80;;;;;;;28.52;59.32;101149.75;5055470;28;20404;-69
2023/06/26 05:37:31;;;;;;;14.57;3.10;;;;;;;28.62;58.73;101148.72;5056615;28;20029;-69
2023/06/26 05:39:56;;;;;;;14.65;3.13;;;;;;;28.58;58.46;101142.97;5056194;28;20035;-69
2023/06/26 05:42:22;;;;;;;9.85;2.70;;;;;;;28.77;57.78;101149.16;5054899;28;20040;-69
2023/06/26 05:44:48;;;;;;;11.82;2.60;;;;;;;28.91;57.30;101148.28;5056249;28;20108;-69
2023/06/26 05:47:13;;;;;;;6.43;2.80;;;;;;;29.09;57.12;101147.31;5055988;28;20055;-69
2023/06/26 05:49:39;;;;;;;6.20;2.20;;;;;;;29.18;56.36;101145.41;5038301;28;20071;-69
2023/06/26 05:52:05;;;;;;;5.28;2.17;;;;;;;29.12;55.93;101148.63;5021909;28;20036;-69
2023/06/26 05:54:31;;;;;;;4.53;2.00;;;;;;;29.24;55.41;101138.59;5055479;28;20495;-68
2023/06/26 05:56:59;;;;;;;8.55;2.53;;;;;;;29.35;54.42;101138.34;5038916;28;20052;-68
2023/06/26 05:59:26;;;;;;;5.82;2.60;;;;;;;28.56;55.40;101140.50;5056355;28;20021;-68
2023/06/26 06:01:52;;;;;;;8.55;2.83;;;;;;;28.48;55.93;101132.16;5055430;28;20446;-69
2023/06/26 06:04:17;;;;;;;11.93;2.60;;;;;;;28.40;55.51;101139.22;5056553;28;20021;-68
2023/06/26 06:06:43;;;;;;;10.40;2.30;;;;;;;28.09;55.85;101123.25;5056118;28;20037;-69
2023/06/26 06:09:08;;;;;;;6.20;2.00;;;;;;;28.50;54.77;101130.69;5054687;28;20036;-68
2023/06/26 06:11:34;;;;;;;7.65;2.47;;;;;;;28.37;54.13;101130.69;5058708;28;20060;-67
2023/06/26 06:13:59;;;;;;;13.68;2.45;;;;;;;27.77;55.66;101129.72;5057783;28;20025;-68
2023/06/26 06:16:29;;;;;;;9.55;2.40;;;;;;;28.34;54.77;101126.59;5054864;28;20510;-68
2023/06/26 06:18:54;;;;;;;5.18;1.80;;;;;;;28.72;53.55;101124.34;5041726;28;20406;-68
2023/06/26 06:21:20;;;;;;;3.55;1.80;;;;;;;29.02;52.71;101124.75;5060993;28;20251;-68
2023/06/26 06:23:45;;;;;;;6.05;2.25;;;;;;;29.27;51.91;101118.56;5059044;28;20433;-68
2023/06/26 06:26:11;;;;;;;3.15;2.20;;;;;;;29.41;52.03;101120.44;5058467;28;20025;-68
2023/06/26 06:28:36;;;;;;;4.05;2.63;;;;;;;29.55;51.42;101120.31;5058751;28;20089;-68
2023/06/26 06:31:02;;;;;;;4.22;2.58;;;;;;;29.59;51.30;101121.31;5060151;28;20024;-69
2023/06/26 06:33:28;;;;;;;3.85;2.95;;;;;;;29.60;50.80;101118.25;5057462;28;20044;-68
2023/06/26 06:35:53;;;;;;;6.40;3.45;;;;;;;29.68;51.33;101120.25;5057385;28;20059;-68
2023/06/26 06:38:18;;;;;;;6.60;3.17;;;;;;;29.74;50.55;101115.38;5060367;28;20084;-68
2023/06/26 06:40:44;;;;;;;6.32;2.95;;;;;;;29.80;50.74;101102.16;5025489;28;20117;-69
2023/06/26 06:43:09;;;;;;;4.13;2.78;;;;;;;29.89;50.37;101098.28;5042599;28;20070;-69
2023/06/26 06:45:37;;;;;;;6.70;2.90;;;;;;;29.75;50.27;101099.56;5063919;28;20017;-69
2023/06/26 06:48:03;;;;;;;6.25;2.58;;;;;;;29.85;50.67;101102.84;5048893;28;20053;-68
2023/06/26 06:50:28;;;;;;;3.90;2.55;;;;;;;29.86;50.54;101093.38;5048754;28;20029;-70
2023/06/26 06:52:54;;;;;;;2.50;2.30;;;;;;;30.01;50.38;101099.63;5065154;28;20045;-72
2023/06/26 06:55:19;;;;;;;5.53;2.38;;;;;;;30.07;50.55;101092.78;5060496;28;20057;-69
2023/06/26 06:57:45;;;;;;;3.15;2.30;;;;;;;30.03;50.12;101091.78;5058511;28;20039;-68
2023/06/26 07:00:14;;;;;;;5.38;2.83;;;;;;;30.03;50.07;101087.03;5059692;28;20025;-69
2023/06/26 07:02:42;;;;;;;2.78;2.20;;;;;;;30.05;49.95;101090.31;5058878;28;20021;-69
2023/06/26 07:05:08;;;;;;;4.85;2.60;;;;;;;30.10;50.18;101075.47;5055615;28;20028;-69
2023/06/26 07:07:34;;;;;;;2.97;2.63;;;;;;;30.13;50.01;101078.44;5055918;28;20032;-68
2023/06/26 07:10:06;;;;;;;4.22;2.25;;;;;;;30.23;49.32;101091.19;5054935;28;20032;-69
2023/06/26 07:12:31;;;;;;;3.50;2.20;;;;;;;30.21;48.81;101073.22;5052559;28;20047;-68
2023/06/26 07:14:57;;;;;;;2.67;2.08;;;;;;;30.12;48.95;101092.59;5056121;28;20480;-68
2023/06/26 07:17:23;;;;;;;2.85;2.08;;;;;;;29.95;48.96;101091.44;5059004;28;20021;-68
2023/06/26 07:19:49;;;;;;;2.78;1.80;;;;;;;29.85;49.38;101079.84;5057710;28;20110;-68
2023/06/26 07:22:15;;;;;;;2.90;1.70;;;;;;;29.61;49.30;101083.03;5060812;28;20025;-69
2023/06/26 07:24:40;;;;;;;2.10;1.90;;;;;;;29.44;49.34;101079.03;5063057;28;20027;-69
2023/06/26 07:27:06;;;;;;;2.08;1.50;;;;;;;29.67;48.47;101078.97;5060261;28;20039;-68
2023/06/26 07:29:31;;;;;;;1.83;1.73;;;;;;;29.84;48.13;101075.44;5059741;28;20475;-68
2023/06/26 07:31:57;;;;;;;1.70;1.60;;;;;;;30.22;47.67;101069.31;5059408;28;20074;-68
2023/06/26 07:34:22;;;;;;;1.60;1.50;;;;;;;30.19;46.65;101065.22;5059779;28;20032;-68
2023/06/26 07:36:48;;;;;;;2.00;1.58;;;;;;;30.22;46.61;101072.91;5059717;28;20104;-69
2023/06/26 07:39:13;;;;;;;1.58;1.48;;;;;;;30.30;46.47;101074.03;5059924;28;20025;-68
2023/06/26 07:41:38;;;;;;;2.60;1.40;;;;;;;30.05;46.80;101078.41;5058487;28;20083;-69
2023/06/26 07:44:04;;;;;;;1.60;1.40;;;;;;;29.88;46.41;101051.44;5059688;28;20032;-69
2023/06/26 07:46:29;;;;;;;2.20;1.30;;;;;;;30.15;46.27;101058.66;5058832;28;20073;-69
2023/06/26 07:48:55;;;;;;;1.90;1.80;;;;;;;30.21;45.72;101065.72;5058422;28;20391;-69
2023/06/26 07:51:21;;;;;;;2.00;1.65;;;;;;;30.28;45.64;101060.50;5057958;28;20027;-69
2023/06/26 07:53:46;;;;;;;1.77;1.67;;;;;;;30.45;45.71;101056.91;5058575;28;20060;-68
2023/06/26 07:56:12;;;;;;;3.50;1.90;;;;;;;30.73;45.64;101046.25;5059528;28;20036;-69
2023/06/26 07:58:37;;;;;;;2.70;1.92;;;;;;;30.65;45.90;101049.84;5057194;28;20037;-69
2023/06/26 08:01:03;;;;;;;2.78;1.98;;;;;;;30.61;46.07;101048.88;5055902;28;20027;-69
2023/06/26 08:03:28;;;;;;;2.97;2.42;;;;;;;30.53;46.60;101041.38;5056897;28;20021;-69
2023/06/26 08:05:54;;;;;;;3.30;2.28;;;;;;;30.54;46.51;101037.47;5041220;28;20035;-68
2023/06/26 08:08:20;;;;;;;3.75;2.50;;;;;;;30.53;46.70;101039.44;5057074;28;20045;-69
2023/06/26 08:10:47;;;;;;;4.10;2.50;;;;;;;30.82;46.45;101024.03;5058365;28;20086;-69
2023/06/26 08:13:13;;;;;;;3.03;2.28;;;;;;;30.60;47.13;101025.03;5059268;28;20471;-69
2023/06/26 08:15:39;;;;;;;4.30;2.28;;;;;;;30.70;46.44;101029.44;5058220;28;20025;-72
2023/06/26 08:18:04;;;;;;;2.50;2.30;;;;;;;30.84;46.79;101016.19;5041614;28;20407;-69
2023/06/26 08:20:30;;;;;;;3.80;2.60;;;;;;;30.98;46.19;101007.63;5058675;28;20048;-69
2023/06/26 08:22:55;;;;;;;3.72;2.85;;;;;;;31.08;46.38;101013.63;5059569;28;20036;-69
2023/06/26 08:25:27;;;;;;;3.38;3.08;;;;;;;31.03;45.99;101011.06;5057459;28;20025;-71
2023/06/26 08:27:53;;;;;;;4.97;3.13;;;;;;;30.73;47.05;101012.09;5058991;28;20028;-69
2023/06/26 08:30:19;;;;;;;7.85;2.75;;;;;;;30.60;47.11;101002.81;5057752;28;20078;-68
2023/06/26 08:32:44;;;;;;;2.60;2.33;;;;;;;30.60;47.26;100989.75;5040106;28;20033;-68
2023/06/26 08:35:10;;;;;;;4.00;2.83;;;;;;;30.71;46.64;100983.84;5040005;28;20388;-69
2023/06/26 08:37:35;;;;;;;4.07;2.70;;;;;;;30.74;46.90;100983.19;5041061;28;20029;-69
2023/06/26 08:40:01;;;;;;;5.97;2.60;;;;;;;30.71;46.92;100978.28;5056915;28;20043;-68
2023/06/26 08:42:26;;;;;;;4.68;3.10;;;;;;;30.70;46.98;100977.47;5057772;28;20072;-69
2023/06/26 08:44:52;;;;;;;6.35;3.03;;;;;;;30.63;47.03;100964.09;5058712;28;20033;-69
2023/06/26 08:47:18;;;;;;;4.68;2.90;;;;;;;30.67;46.67;100970.59;5058522;28;20049;-69
2023/06/26 08:50:01;;;;;;;3.42;3.03;;;;;;;30.61;47.01;100966.38;5056605;28;20267;-68
2023/06/26 08:52:33;;;;;;;3.92;3.10;;;;;;;30.42;46.78;100960.38;5058182;28;20055;-69
2023/06/26 08:55:00;;;;;;;5.20;3.50;;;;;;;30.46;47.21;100960.53;5058126;28;20052;-69
2023/06/26 08:57:26;;;;;;;4.38;3.45;;;;;;;30.47;47.63;100951.88;5056787;28;20029;-68
2023/06/26 08:59:52;;;;;;;6.93;3.70;;;;;;;30.53;47.43;100955.28;5056537;28;20040;-69
2023/06/26 09:02:20;;;;;;;7.57;3.40;;;;;;;30.40;47.80;100934.91;5058156;28;20440;-69
2023/06/26 09:04:47;;;;;;;5.65;3.58;;;;;;;30.45;47.80;100943.06;5057254;28;20067;-69
2023/06/26 09:07:13;;;;;;;5.50;3.70;;;;;;;30.31;48.29;100936.88;5057939;28;20085;-69
2023/06/26 09:09:38;;;;;;;4.30;3.50;;;;;;;30.34;48.09;100942.59;5057283;28;20036;-69
2023/06/26 09:12:04;;;;;;;4.28;3.05;;;;;;;30.24;48.25;100923.50;5063547;28;20025;-69
2023/06/26 09:14:30;;;;;;;3.75;3.10;;;;;;;30.50;47.63;100930.94;5064320;28;20016;-70
2023/06/26 09:16:55;;;;;;;3.72;3.00;;;;;;;30.65;47.71;100931.22;5048859;28;20037;-71
2023/06/26 09:19:21;;;;;;;3.75;2.85;;;;;;;30.77;47.48;100924.22;5065288;28;20535;-68
2023/06/26 09:21:50;;;;;;;3.33;2.65;;;;;;;30.72;47.29;100914.03;5063565;28;20033;-68
2023/06/26 09:24:17;;;;;;;3.30;3.00;;;;;;;30.64;47.21;100901.03;5062593;28;20040;-70
2023/06/26 09:26:42;;;;;;;3.67;3.30;;;;;;;30.50;47.32;100908.72;5063195;28;20086;-69
2023/06/26 09:29:09;;;;;;;3.53;2.85;;;;;;;30.40;47.24;100913.50;5063591;28;20025;-69
2023/06/26 09:31:39;;;;;;;3.38;2.85;;;;;;;30.48;47.20;100911.84;5065617;28;20088;-69
2023/06/26 09:34:05;;;;;;;3.10;2.80;;;;;;;30.56;46.88;100901.84;5066236;28;20021;-70
2023/06/26 09:36:32;;;;;;;3.30;2.67;;;;;;;30.65;46.85;100906.22;5065506;28;20039;-69
2023/06/26 09:39:02;;;;;;;4.30;2.47;;;;;;;30.77;46.90;100899.22;5065721;28;20381;-69
2023/06/26 09:41:28;;;;;;;2.88;2.40;;;;;;;30.88;46.67;100894.91;5064835;28;20040;-70
2023/06/26 09:43:55;;;;;;;3.78;2.53;;;;;;;30.98;45.67;100894.50;5065503;28;20033;-69
2023/06/26 09:46:27;;;;;;;4.18;2.60;;;;;;;31.03;45.38;100872.09;5064671;28;20028;-69
2023/06/26 09:49:10;;;;;;;3.60;2.50;;;;;;;31.11;45.04;100867.63;5066389;28;20029;-71
2023/06/26 09:51:37;;;;;;;3.90;2.50;;;;;;;31.03;44.86;100865.72;5059169;28;20112;-69
2023/06/26 09:54:04;;;;;;;3.05;2.65;;;;;;;31.12;44.81;100860.91;5057488;28;20021;-69
2023/06/26 09:56:32;;;;;;;2.38;2.17;;;;;;;31.29;44.49;100858.03;5057564;28;20021;-69
2023/06/26 09:59:03;;;;;;;6.50;2.47;;;;;;;31.27;44.07;100857.56;5040169;28;20561;-69
2023/06/26 10:01:31;;;;;;;3.95;2.60;;;;;;;31.21;44.11;100853.34;5057275;28;20029;-69
2023/06/26 10:03:59;;;;;;;3.00;2.35;;;;;;;31.31;43.82;100852.94;5057109;28;20108;-69
2023/06/26 10:06:35;;;;;;;3.38;2.38;;;;;;;31.41;43.78;100864.84;5056241;28;20045;-68
2023/06/26 10:09:02;;;;;;;5.50;2.50;;;;;;;31.42;43.18;100863.69;5057729;28;20036;-69
2023/06/26 10:11:45;;;;;;;2.83;2.33;;;;;;;31.51;42.89;100851.34;5057647;28;20021;-70
2023/06/26 10:14:11;;;;;;;5.88;2.60;;;;;;;31.59;43.44;100844.09;5055755;28;20502;-69
2023/06/26 10:16:40;;;;;;;4.35;2.50;;;;;;;31.86;42.78;100844.66;5057276;28;20025;-69
2023/06/26 10:19:09;;;;;;;3.05;2.67;;;;;;;32.06;42.58;100843.84;5057188;28;20024;-69
2023/06/26 10:21:38;;;;;;;2.88;2.40;;;;;;;32.01;42.54;100849.59;5056698;28;20078;-70
2023/06/26 10:24:06;;;;;;;2.75;2.30;;;;;;;32.03;42.94;100848.09;5054297;28;20021;-69
2023/06/26 10:26:37;;;;;;;3.20;2.67;;;;;;;32.05;42.64;100854.16;5056053;28;20033;-69
2023/06/26 10:29:04;;;;;;;3.63;2.25;;;;;;;32.04;42.57;100849.72;5055690;28;20025;-69
2023/06/26 10:31:31;;;;;;;2.97;2.60;;;;;;;32.12;42.32;100836.06;5055969;28;20025;-69
2023/06/26 10:33:57;;;;;;;2.60;2.30;;;;;;;32.22;42.08;100841.19;5054990;28;20468;-69
2023/06/26 10:36:32;;;;;;;3.13;2.28;;;;;;;32.20;42.22;100832.38;5057153;28;20052;-69
2023/06/26 10:39:07;;;;;;;5.85;3.03;;;;;;;32.21;42.22;100834.00;5054119;28;20037;-69
2023/06/26 10:41:42;;;;;;;3.13;2.45;;;;;;;32.42;41.68;100831.16;5056894;28;20391;-69
2023/06/26 10:44:20;;;;;;;4.43;2.40;;;;;;;32.51;41.67;100831.84;5056728;28;20530;-69
2023/06/26 10:46:52;;;;;;;3.15;2.70;;;;;;;32.32;41.46;100823.22;5055105;28;20103;-69
2023/06/26 10:49:18;;;;;;;3.95;2.80;;;;;;;32.27;42.18;100827.84;5056929;28;20028;-70
2023/06/26 10:51:50;;;;;;;3.05;2.50;;;;;;;32.37;41.43;100823.81;5055056;28;20025;-69
2023/06/26 10:54:19;;;;;;;6.78;2.70;;;;;;;32.46;41.41;100821.78;5056609;28;20039;-69
2023/06/26 10:56:50;;;;;;;5.20;2.35;;;;;;;32.51;41.28;100821.53;5055466;28;20080;-69
2023/06/26 10:59:18;;;;;;;7.35;2.75;;;;;;;32.71;41.36;100817.00;5057855;28;20043;-69
2023/06/26 11:01:45;;;;;;;5.70;2.88;;;;;;;32.79;40.66;100820.03;5059329;28;20075;-70
2023/06/26 11:04:14;;;;;;;2.95;2.28;;;;;;;32.62;38.60;100810.75;5058151;28;20033;-69
2023/06/26 11:06:39;;;;;;;4.95;2.30;;;;;;;32.63;36.65;100815.16;5058808;28;20024;-69
2023/06/26 11:09:05;;;;;;;2.72;2.20;;;;;;;32.66;36.16;100822.81;5059891;28;20028;-69
2023/06/26 11:11:52;;;;;;;6.78;2.30;;;;;;;32.61;34.26;100827.81;5053637;28;20029;-70
2023/06/26 11:14:22;;;;;;;4.28;2.35;;;;;;;32.60;34.06;100828.97;5058451;28;20074;-68
2023/06/26 11:16:49;;;;;;;4.03;2.45;;;;;;;32.60;33.29;100821.41;5041421;28;20033;-69
2023/06/26 11:19:16;;;;;;;4.72;2.40;;;;;;;32.49;32.50;100809.13;5059443;28;20025;-68
2023/06/26 11:21:42;;;;;;;3.92;2.13;;;;;;;32.39;32.51;100831.84;5059454;28;20092;-69